• Join FlightAware (Why Join?)
  • Login
  • US Flag 
03:20AM EST


 

Airport Tracker/Info


-or-


 

Live Flight TrackerFlight Track Log ✈ SWA2353 ✈ 28-Apr-2013 ✈ KMDW - KSTL

Flight Track Log - Related Links

Times and Time Zones

All times are in EDT time to prevent confusion due to time zone crossing. See the SWA2353 flight status page for this flight to view local times or setup timezone preferences in your user account.

Time Position Orientation Groundspeed Altitude Reporting Facility
EDT Latitude Longitude Course Direction KTS MPH feet Rate Location/Type
09:36PM 41.7833 -87.6833 187° South 205 236 2,900  Level Chicago TRACON
09:39PM 41.6214 -87.6661 175° South 276 318 9,400 2,700 Climbing Chicago Center
09:40PM 41.5608 -87.7364 221° Southwest 305 351 12,000 1,380 Climbing Chicago Center
09:41PM 41.4775 -87.7750 199° South 315 362 12,300 1,500 Climbing Chicago Center
09:42PM 41.1014 -88.0887 187° South  Level FlightAware Approximate
09:42PM 41.3828 -87.8164 198° South 345 397 15,200  Level Chicago Center
09:43PM 41.2842 -87.8600 198° South 364 419 18,700 3,120 Climbing Chicago Center
09:44PM 41.1794 -87.9058 198° South 387 445 21,600 2,040 Climbing Chicago Center
09:45PM 41.0722 -87.9522 198° South 401 461 23,000 1,860 Climbing Chicago Center
09:46PM 40.9419 -88.0075 198° South 408 470 25,500 1,440 Climbing Chicago Center
09:47PM 40.8314 -88.0561 198° South 417 480 26,000 240 Climbing Chicago Center
09:48PM 40.7181 -88.1044 198° South 425 489 26,000  Level Chicago Center
09:49PM 40.5961 -88.1575 198° South 454 522 26,000  Level Chicago Center
09:50PM 40.4772 -88.2125 199° South 458 527 26,000  Level Chicago Center
09:51PM 40.3592 -88.2708 201° Southwest 457 526 26,000  Level Chicago Center
09:52PM 40.2172 -88.3375 200° South 455 524 26,000  Level Chicago Center
09:53PM 40.1172 -88.3825 199° South 454 522 26,000  Level Chicago Center
09:54PM 40.0211 -88.4269 200° South 454 522 26,000  Level Kansas City Center
09:55PM 39.9011 -88.4825 200° South 456 525 26,000  Level Kansas City Center
09:56PM 39.7567 -88.5500 200° South 457 526 26,000  Level Kansas City Center
09:57PM 39.6336 -88.6078 200° South 463 533 26,000  Level Kansas City Center
09:59PM 39.4328 -88.7983 216° Southwest 450 518 26,000 -180 Level Kansas City Center
10:00PM 39.3433 -88.8958 220° Southwest 445 512 25,500 -1,320 Descending Kansas City Center
10:01PM 39.2567 -88.9881 219° Southwest 417 480 23,400 -2,100 Descending Kansas City Center
10:02PM 39.1722 -89.0758 219° Southwest 397 457 21,300 -2,220 Descending Kansas City Center
10:03PM 39.0864 -89.1842 224° Southwest 374 430 19,000 -2,160 Descending Kansas City Center
10:04PM 39.0603 -89.3058 255° West 354 407 16,900 -2,100 Descending Kansas City Center
10:05PM 39.0328 -89.4306 254° West 340 391 14,800 -2,220 Descending Kansas City Center
10:06PM 38.9897 -89.5378 243° Southwest 344 396 12,500 -2,160 Descending Kansas City Center
10:07PM 38.9386 -89.6397 237° Southwest 341 392 10,500 -1,260 Descending Kansas City Center
10:08PM 38.8925 -89.7286 236° Southwest 320 368 10,000 -1,140 Descending Kansas City Center
10:10PM 38.8000 -89.9000 235° Southwest 278 320 7,200 -1,440 Descending Gateway (St. Louis) TRACON
10:11PM 38.7667 -89.9833 243° Southwest 270 311 5,900 -1,260 Descending Gateway (St. Louis) TRACON
10:12PM 38.7167 -90.0667 232° Southwest 264 304 4,700 -1,140 Descending Gateway (St. Louis) TRACON
10:13PM 38.6833 -90.1333 237° Southwest 253 291 3,700 -840 Descending Gateway (St. Louis) TRACON
10:14PM 38.6667 -90.2000 252° West 217 250 3,100 -900 Descending Gateway (St. Louis) TRACON
10:15PM 38.7000 -90.2500 311° West 177 204 2,100 -1,080 Descending Gateway (St. Louis) TRACON
10:15PM 38.7039 -90.2689 285° West 202 232 1,900 -780 Descending Kansas City Center
10:16PM 38.7247 -90.3119 302° West 170 196 1,100 -780 Descending Kansas City Center
10:18PM 38.7487 -90.3700 303° West  Level Estimated
10:25PM 38.7487 -90.3700 169° South  Level Estimated
10:26PM 38.7487 -90.3700 169° South  Level Estimated